Time;durP1;ratioP1;P1;durP2;ratioP2;P2;SDS_P1;SDS_P2;PMS_P1;PMS_P2;Temp;Humidity;BMP_temperature;BMP_pressure;BME280_temperature;BME280_humidity;BME280_pressure;Samples;Min_cycle;Max_cycle;Signal;HPM_P1;HPM_P2
2022/08/13 00:02:22;;;;;;;1.55;0.70;;;14.90;99.90;;;;;;4976532;28;20023;-70
2022/08/13 00:05:05;;;;;;;2.60;0.80;;;15.00;99.90;;;;;;4961566;28;20479;-71
2022/08/13 00:07:32;;;;;;;1.10;1.10;;;15.10;99.90;;;;;;4977834;28;20025;-70
2022/08/13 00:10:30;;;;;;;0.90;0.47;;;15.20;99.90;;;;;;4977632;28;20023;-70
2022/08/13 00:12:58;;;;;;;0.40;0.30;;;15.20;99.90;;;;;;4976398;28;20027;-69
2022/08/13 00:15:28;;;;;;;0.90;0.40;;;15.10;99.90;;;;;;4977662;28;20030;-69
2022/08/13 00:18:00;;;;;;;;;;;15.10;99.90;;;;;;4976633;28;20033;-70
2022/08/13 00:20:34;;;;;;;1.75;0.30;;;15.10;99.90;;;;;;4977394;28;19913;-69
2022/08/13 00:23:02;;;;;;;1.23;0.32;;;15.10;99.90;;;;;;4976127;28;20027;-69
2022/08/13 00:25:29;;;;;;;0.40;0.20;;;14.90;99.90;;;;;;4975835;28;20491;-70
2022/08/13 00:27:58;;;;;;;0.15;0.15;;;15.00;99.90;;;;;;4975844;28;20077;-70
2022/08/13 00:30:31;;;;;;;0.65;0.30;;;15.00;99.90;;;;;;4959761;28;20026;-69
2022/08/13 00:33:12;;;;;;;0.65;0.30;;;14.90;99.90;;;;;;4976046;28;20089;-69
2022/08/13 00:35:50;;;;;;;0.32;0.20;;;14.80;99.90;;;;;;4960603;28;20054;-71
2022/08/13 00:38:22;;;;;;;0.20;0.20;;;14.80;99.90;;;;;;4976192;28;20027;-70
2022/08/13 00:40:59;;;;;;;0.35;0.30;;;14.80;99.90;;;;;;4977181;28;20019;-69
2022/08/13 00:43:30;;;;;;;0.45;0.40;;;14.80;99.90;;;;;;4977319;28;20085;-70
2022/08/13 00:46:01;;;;;;;1.08;0.40;;;14.90;99.90;;;;;;4976582;28;20113;-69
2022/08/13 00:48:46;;;;;;;2.03;0.45;;;15.10;99.90;;;;;;4975570;28;20034;-70
2022/08/13 00:51:16;;;;;;;0.80;0.30;;;15.20;99.90;;;;;;4977072;28;20494;-70
2022/08/13 00:53:44;;;;;;;0.52;0.30;;;15.10;99.90;;;;;;4977002;28;20071;-71
2022/08/13 00:56:13;;;;;;;2.00;0.57;;;15.00;99.90;;;;;;4959647;28;20122;-71
2022/08/13 00:58:42;;;;;;;0.88;0.20;;;15.00;99.90;;;;;;4975587;28;20034;-70
2022/08/13 01:01:13;;;;;;;0.40;0.30;;;15.10;99.90;;;;;;4976668;28;20030;-69
2022/08/13 01:03:42;;;;;;;1.60;0.40;;;15.20;99.90;;;;;;4976764;28;20042;-71
2022/08/13 01:06:11;;;;;;;2.55;0.88;;;15.40;99.90;;;;;;4975199;28;20034;-71
2022/08/13 01:08:40;;;;;;;5.95;1.92;;;16.10;99.90;;;;;;4975379;28;20027;-71
2022/08/13 01:11:11;;;;;;;1.48;0.60;;;16.10;99.90;;;;;;4975241;28;20030;-71
2022/08/13 01:13:42;;;;;;;1.48;0.40;;;16.30;99.90;;;;;;4975260;28;20033;-70
2022/08/13 01:16:14;;;;;;;0.57;0.20;;;16.40;99.90;;;;;;4975615;28;20050;-71
2022/08/13 01:18:49;;;;;;;0.45;0.20;;;16.50;99.90;;;;;;4975332;28;20038;-71
2022/08/13 01:21:22;;;;;;;0.50;0.50;;;16.40;99.90;;;;;;4959332;28;20030;-71
2022/08/13 01:23:52;;;;;;;0.75;0.20;;;16.10;99.90;;;;;;4976253;28;20023;-71
2022/08/13 01:26:22;;;;;;;0.40;0.20;;;16.10;99.90;;;;;;4976238;28;20057;-71
2022/08/13 01:28:50;;;;;;;;;;;16.40;99.90;;;;;;4959825;28;20082;-72
2022/08/13 01:31:19;;;;;;;1.70;0.30;;;16.50;99.90;;;;;;4976330;28;19993;-71
2022/08/13 01:33:56;;;;;;;0.50;0.30;;;16.60;99.90;;;;;;4959031;28;20023;-71
2022/08/13 01:36:25;;;;;;;0.22;0.10;;;16.70;99.90;;;;;;4960534;28;20439;-71
2022/08/13 01:39:01;;;;;;;0.25;0.25;;;16.70;99.90;;;;;;4976118;28;20022;-70
2022/08/13 01:41:29;;;;;;;1.77;0.35;;;16.90;99.90;;;;;;4974686;28;20439;-70
2022/08/13 01:44:04;;;;;;;0.47;0.28;;;16.70;99.90;;;;;;4976133;28;20054;-72
2022/08/13 01:52:07;;;;;;;0.65;0.30;;;17.00;99.90;;;;;;4976189;28;20435;-70
2022/08/13 01:54:36;;;;;;;1.98;0.50;;;17.00;99.90;;;;;;4974636;28;20467;-70
2022/08/13 01:57:07;;;;;;;0.50;0.40;;;17.10;99.90;;;;;;4975622;28;20030;-70
2022/08/13 01:59:37;;;;;;;1.40;0.70;;;17.30;99.90;;;;;;4975432;28;20030;-70
2022/08/13 02:02:07;;;;;;;0.75;0.40;;;17.20;99.90;;;;;;4974190;28;20038;-70
2022/08/13 02:04:35;;;;;;;1.98;0.75;;;17.30;99.90;;;;;;4975665;28;20447;-70
2022/08/13 02:07:02;;;;;;;0.80;0.32;;;17.40;99.90;;;;;;4958148;28;20034;-70
2022/08/13 02:09:31;;;;;;;0.30;0.20;;;17.40;99.90;;;;;;4975532;28;20102;-69
2022/08/13 02:11:58;;;;;;;0.98;0.30;;;17.20;99.90;;;;;;4975474;28;20023;-70
2022/08/13 02:14:29;;;;;;;1.67;0.40;;;17.10;99.90;;;;;;4975428;28;20098;-70
2022/08/13 02:16:59;;;;;;;;;;;17.20;99.90;;;;;;4975971;28;20045;-72
2022/08/13 02:19:30;;;;;;;1.00;0.30;;;17.10;99.90;;;;;;4975651;28;20001;-70
2022/08/13 02:21:59;;;;;;;0.55;0.43;;;17.30;99.90;;;;;;4974005;28;20062;-70
2022/08/13 02:24:26;;;;;;;0.95;0.68;;;17.40;99.90;;;;;;4973971;28;20035;-70
2022/08/13 02:26:53;;;;;;;1.35;0.40;;;17.30;99.90;;;;;;4975193;28;20030;-71
2022/08/13 02:29:23;;;;;;;0.68;0.25;;;17.20;99.90;;;;;;4975150;28;20019;-70
2022/08/13 02:31:50;;;;;;;1.48;0.55;;;17.30;99.90;;;;;;4973988;28;20112;-70
2022/08/13 02:34:18;;;;;;;0.57;0.40;;;17.30;99.90;;;;;;4975387;28;20015;-71
2022/08/13 02:36:48;;;;;;;1.73;0.55;;;17.20;99.90;;;;;;4973854;28;20035;-70
2022/08/13 02:39:15;;;;;;;;;;;17.10;99.90;;;;;;4974268;28;20027;-70
2022/08/13 02:41:43;;;;;;;0.88;0.35;;;16.90;99.90;;;;;;4974984;28;19912;-72
2022/08/13 02:44:13;;;;;;;0.57;0.30;;;16.80;99.90;;;;;;4974919;28;20023;-72
2022/08/13 02:46:48;;;;;;;0.82;0.63;;;17.00;99.90;;;;;;4973574;28;20042;-71
2022/08/13 02:49:21;;;;;;;0.77;0.43;;;17.50;99.90;;;;;;4974843;28;20031;-71
2022/08/13 02:51:49;;;;;;;0.35;0.20;;;17.60;99.90;;;;;;4973534;28;20054;-70
2022/08/13 02:54:20;;;;;;;0.63;0.32;;;17.40;99.90;;;;;;4957365;28;20039;-69
2022/08/13 02:56:48;;;;;;;2.10;0.50;;;17.70;99.90;;;;;;4973496;28;20034;-70
2022/08/13 02:59:16;;;;;;;0.57;0.30;;;17.80;99.90;;;;;;4974769;28;20035;-71
2022/08/13 03:01:46;;;;;;;0.90;0.38;;;17.60;99.90;;;;;;4974764;28;20436;-70
2022/08/13 03:04:15;;;;;;;0.82;0.30;;;17.60;99.90;;;;;;4974746;28;20058;-71
2022/08/13 03:06:44;;;;;;;0.60;0.40;;;17.80;99.90;;;;;;4973605;28;20035;-71
2022/08/13 03:09:11;;;;;;;0.30;0.25;;;18.10;99.90;;;;;;4974536;28;20082;-70
2022/08/13 03:11:39;;;;;;;0.63;0.30;;;18.40;99.90;;;;;;4974374;28;20022;-71
2022/08/13 03:14:08;;;;;;;1.02;0.47;;;18.80;99.90;;;;;;4972997;28;20031;-71
2022/08/13 03:16:39;;;;;;;0.60;0.45;;;19.00;99.90;;;;;;4973276;28;20029;-71
2022/08/13 03:19:06;;;;;;;;;;;18.50;99.90;;;;;;4973431;28;20113;-71
2022/08/13 03:21:39;;;;;;;0.75;0.38;;;18.10;99.90;;;;;;4974469;28;19968;-72
2022/08/13 03:24:18;;;;;;;1.50;0.50;;;17.90;99.90;;;;;;4973086;28;20023;-71
2022/08/13 03:26:46;;;;;;;1.42;0.32;;;17.70;99.90;;;;;;4973035;28;20037;-70
2022/08/13 03:29:14;;;;;;;1.38;0.50;;;17.70;99.90;;;;;;4974710;28;20078;-71
2022/08/13 03:31:42;;;;;;;3.15;0.50;;;17.80;99.90;;;;;;4974491;28;20026;-70
2022/08/13 03:34:10;;;;;;;0.43;0.20;;;17.80;99.90;;;;;;4974244;28;20447;-69
2022/08/13 03:36:38;;;;;;;0.60;0.30;;;17.50;99.90;;;;;;4974879;28;20027;-72
2022/08/13 03:39:05;;;;;;;1.48;0.98;;;17.50;99.90;;;;;;4957178;28;20385;-71
2022/08/13 03:41:33;;;;;;;0.98;0.30;;;17.60;99.90;;;;;;4972996;28;20031;-72
2022/08/13 03:44:02;;;;;;;2.35;1.42;;;17.60;99.90;;;;;;4973284;28;20034;-72
2022/08/13 03:46:29;;;;;;;1.13;0.50;;;17.10;99.90;;;;;;4974013;28;20050;-72
2022/08/13 03:48:57;;;;;;;1.45;0.22;;;17.00;99.90;;;;;;4973025;28;20027;-71
2022/08/13 03:51:24;;;;;;;1.10;0.32;;;16.80;99.90;;;;;;4974552;28;20027;-71
2022/08/13 03:53:54;;;;;;;0.65;0.38;;;16.80;99.90;;;;;;4974345;28;20077;-73
2022/08/13 03:56:25;;;;;;;3.03;0.73;;;17.10;99.90;;;;;;4957345;28;20064;-73
2022/08/13 03:58:54;;;;;;;0.50;0.30;;;17.40;99.90;;;;;;4974526;28;20027;-72
2022/08/13 04:01:22;;;;;;;0.85;0.20;;;17.70;99.90;;;;;;4974119;28;20114;-72
2022/08/13 04:03:49;;;;;;;1.63;0.70;;;17.80;99.90;;;;;;4974123;28;20034;-73
2022/08/13 04:06:22;;;;;;;0.50;0.40;;;17.90;99.90;;;;;;4974027;28;20399;-72
2022/08/13 04:08:50;;;;;;;0.43;0.15;;;18.00;99.90;;;;;;4974745;28;20019;-71
2022/08/13 04:11:21;;;;;;;0.77;0.32;;;17.90;99.90;;;;;;4974005;28;20025;-72
2022/08/13 04:13:50;;;;;;;1.00;0.60;;;18.10;99.90;;;;;;4974148;28;20106;-72
2022/08/13 04:16:23;;;;;;;2.10;1.00;;;18.40;99.90;;;;;;4974159;28;20502;-72
2022/08/13 04:18:51;;;;;;;1.30;0.70;;;18.40;99.90;;;;;;4974329;28;20456;-72
2022/08/13 04:21:21;;;;;;;0.50;0.40;;;18.50;99.90;;;;;;4973986;28;20030;-73
2022/08/13 04:23:49;;;;;;;0.50;0.40;;;18.50;99.90;;;;;;4974101;28;20376;-73
2022/08/13 04:26:18;;;;;;;1.60;0.73;;;18.60;99.90;;;;;;4977718;28;20061;-73
2022/08/13 04:28:45;;;;;;;1.75;0.28;;;18.90;99.90;;;;;;4976302;28;20023;-74
2022/08/13 04:31:15;;;;;;;1.35;0.30;;;18.90;99.90;;;;;;4976046;28;20033;-72
2022/08/13 04:33:43;;;;;;;1.27;0.20;;;18.90;99.90;;;;;;4976194;28;20027;-74
2022/08/13 04:36:11;;;;;;;0.47;0.30;;;18.80;99.80;;;;;;4975908;28;20082;-73
2022/08/13 04:38:39;;;;;;;0.35;0.20;;;18.90;99.50;;;;;;4975902;28;20022;-73
2022/08/13 04:41:06;;;;;;;0.47;0.20;;;18.90;99.90;;;;;;4975977;28;20035;-74
2022/08/13 04:43:34;;;;;;;0.40;0.20;;;19.00;99.90;;;;;;4975993;28;20496;-74
2022/08/13 04:46:01;;;;;;;0.68;0.20;;;18.80;99.90;;;;;;4976899;28;20174;-74
2022/08/13 04:48:34;;;;;;;0.45;0.20;;;18.70;99.80;;;;;;4975945;28;20062;-74
2022/08/13 04:51:02;;;;;;;0.15;0.10;;;18.50;99.60;;;;;;4975761;28;20023;-74
2022/08/13 04:53:35;;;;;;;2.00;0.40;;;18.00;99.90;;;;;;4975667;28;20026;-73
2022/08/13 04:56:03;;;;;;;1.40;0.40;;;17.90;99.90;;;;;;4975539;28;20027;-73
2022/08/13 04:58:35;;;;;;;0.50;0.20;;;17.70;99.90;;;;;;4975881;28;20031;-72
2022/08/13 05:01:09;;;;;;;0.60;0.30;;;17.70;99.90;;;;;;4975531;28;20487;-72
2022/08/13 05:03:39;;;;;;;0.90;0.52;;;17.60;99.90;;;;;;4976868;28;20081;-72
2022/08/13 05:06:18;;;;;;;0.85;0.15;;;17.60;99.90;;;;;;4975637;28;20094;-73
2022/08/13 05:08:50;;;;;;;0.90;0.10;;;17.70;99.90;;;;;;4960370;28;20506;-73
2022/08/13 05:11:19;;;;;;;0.50;0.20;;;17.80;99.90;;;;;;4976630;28;20098;-73
2022/08/13 05:13:47;;;;;;;1.42;0.20;;;17.70;99.90;;;;;;4975366;28;20483;-73
2022/08/13 05:16:16;;;;;;;0.25;0.20;;;17.60;99.90;;;;;;4976905;28;20546;-73
2022/08/13 05:18:50;;;;;;;0.73;0.30;;;17.40;99.90;;;;;;4976464;28;20110;-73
2022/08/13 05:21:20;;;;;;;0.13;0.13;;;17.30;99.90;;;;;;4959993;28;20118;-72
2022/08/13 05:23:53;;;;;;;1.17;0.30;;;17.30;99.90;;;;;;4976552;28;20030;-72
2022/08/13 05:26:25;;;;;;;0.47;0.30;;;17.20;99.90;;;;;;4976848;28;20479;-73
2022/08/13 05:28:52;;;;;;;0.57;0.28;;;17.10;99.90;;;;;;4976807;28;20026;-73
2022/08/13 05:31:19;;;;;;;1.08;0.32;;;17.10;99.90;;;;;;4975525;28;20536;-73
2022/08/13 05:33:47;;;;;;;1.35;0.30;;;17.10;99.90;;;;;;4976797;28;20102;-72
2022/08/13 05:36:14;;;;;;;1.45;0.30;;;17.20;99.90;;;;;;4975595;28;20027;-72
2022/08/13 05:38:42;;;;;;;1.88;0.60;;;17.40;99.90;;;;;;4976809;28;20372;-72
2022/08/13 05:41:13;;;;;;;0.45;0.22;;;17.60;99.90;;;;;;4975175;28;20034;-71
2022/08/13 05:43:41;;;;;;;0.80;0.47;;;17.70;99.90;;;;;;4976679;28;20030;-74
2022/08/13 05:46:10;;;;;;;1.48;0.40;;;17.70;99.90;;;;;;4974834;28;20100;-75
2022/08/13 05:48:40;;;;;;;0.28;0.20;;;17.70;99.90;;;;;;4974970;28;20022;-74
2022/08/13 05:51:12;;;;;;;0.70;0.30;;;17.80;99.90;;;;;;4975005;28;20027;-75
2022/08/13 05:53:40;;;;;;;1.60;0.40;;;17.90;99.90;;;;;;4976496;28;20029;-75
2022/08/13 05:56:09;;;;;;;1.52;0.50;;;18.10;99.90;;;;;;4976248;28;20106;-76
2022/08/13 05:58:36;;;;;;;1.48;0.90;;;18.30;99.90;;;;;;4975893;28;20027;-75
2022/08/13 06:03:49;;;;;;;0.55;0.17;;;18.30;99.90;;;;;;4975748;28;20038;-76
2022/08/13 06:06:20;;;;;;;0.80;0.40;;;18.10;99.50;;;;;;4975840;28;20440;-74
2022/08/13 06:08:48;;;;;;;1.10;0.38;;;18.00;99.90;;;;;;4974316;28;20049;-74
2022/08/13 06:11:17;;;;;;;0.88;0.35;;;17.80;99.80;;;;;;4975887;28;20054;-75
2022/08/13 06:13:49;;;;;;;1.50;0.30;;;17.60;99.80;;;;;;4974684;28;20107;-77
2022/08/13 06:16:21;;;;;;;1.20;0.35;;;17.40;99.30;;;;;;4975691;28;20102;-75
2022/08/13 06:18:49;;;;;;;0.73;0.20;;;17.30;99.20;;;;;;4975953;28;20027;-75
2022/08/13 06:21:18;;;;;;;1.20;0.40;;;17.10;99.90;;;;;;4975366;28;20022;-75
2022/08/13 06:23:48;;;;;;;0.95;0.30;;;17.10;99.80;;;;;;4974003;28;20023;-75
2022/08/13 06:26:19;;;;;;;1.17;0.20;;;17.00;99.50;;;;;;4974027;28;20027;-73
2022/08/13 06:28:51;;;;;;;1.92;0.50;;;17.00;99.90;;;;;;4974110;28;20476;-73
2022/08/13 06:31:28;;;;;;;1.65;0.40;;;17.00;99.90;;;;;;4973904;28;20023;-74
2022/08/13 06:33:56;;;;;;;1.10;0.30;;;16.90;99.90;;;;;;4975395;28;20034;-74
2022/08/13 06:36:29;;;;;;;1.30;0.32;;;16.80;99.90;;;;;;4975178;28;20574;-75
2022/08/13 06:39:04;;;;;;;1.05;0.50;;;16.60;99.90;;;;;;4975286;28;20494;-76
2022/08/13 06:41:36;;;;;;;1.33;0.40;;;16.50;99.80;;;;;;4973984;28;20030;-74
2022/08/13 06:44:05;;;;;;;1.17;0.40;;;16.50;99.60;;;;;;4973600;28;20031;-74
2022/08/13 06:46:33;;;;;;;1.40;0.40;;;16.40;99.50;;;;;;4973213;28;20411;-75
2022/08/13 06:49:02;;;;;;;1.35;0.40;;;16.30;99.40;;;;;;4975442;28;20030;-75
2022/08/13 06:51:31;;;;;;;1.37;0.30;;;16.30;99.90;;;;;;4958438;28;20031;-75
2022/08/13 06:53:58;;;;;;;1.30;0.35;;;16.10;99.60;;;;;;4973513;28;20272;-73
2022/08/13 06:56:27;;;;;;;0.50;0.30;;;16.00;99.60;;;;;;4974711;28;20434;-73
2022/08/13 06:58:58;;;;;;;2.33;0.68;;;15.90;99.90;;;;;;4973405;28;20026;-72
2022/08/13 07:01:28;;;;;;;1.42;0.40;;;15.80;99.90;;;;;;4974806;28;20030;-74
2022/08/13 07:03:56;;;;;;;1.10;0.32;;;15.70;99.90;;;;;;4957607;28;20495;-73
2022/08/13 07:06:28;;;;;;;1.67;0.40;;;15.60;99.90;;;;;;4974993;28;20027;-73
2022/08/13 07:09:01;;;;;;;1.55;0.30;;;15.60;99.90;;;;;;4974663;28;20031;-73
2022/08/13 07:11:32;;;;;;;1.48;0.40;;;15.40;99.90;;;;;;4973130;28;20026;-71
2022/08/13 07:14:01;;;;;;;1.23;0.50;;;15.30;99.90;;;;;;4973517;28;20081;-73
2022/08/13 07:16:32;;;;;;;2.47;0.80;;;15.20;99.90;;;;;;4975112;28;20054;-73
2022/08/13 07:19:01;;;;;;;2.40;0.75;;;15.20;99.90;;;;;;4974582;28;20280;-75
2022/08/13 07:21:32;;;;;;;3.35;0.95;;;15.20;99.90;;;;;;4974597;28;20018;-74
2022/08/13 07:24:04;;;;;;;1.23;0.40;;;15.10;99.90;;;;;;4973608;28;20372;-74
2022/08/13 07:26:37;;;;;;;1.52;0.50;;;15.10;99.90;;;;;;4973091;28;20313;-73
2022/08/13 07:29:07;;;;;;;3.30;0.77;;;15.10;99.90;;;;;;4974527;28;20043;-73
2022/08/13 07:31:41;;;;;;;1.92;0.60;;;15.20;99.90;;;;;;4974590;28;20107;-74
2022/08/13 07:34:09;;;;;;;2.38;0.95;;;15.10;99.90;;;;;;4973928;28;20055;-74
2022/08/13 07:36:40;;;;;;;2.03;0.68;;;15.00;99.90;;;;;;4973189;28;20073;-74
2022/08/13 07:39:12;;;;;;;2.30;0.77;;;14.90;99.90;;;;;;4974326;28;20027;-74
2022/08/13 07:41:46;;;;;;;1.52;0.80;;;14.90;99.90;;;;;;4972992;28;20411;-73
2022/08/13 07:44:20;;;;;;;2.20;0.80;;;14.80;99.90;;;;;;4972983;28;20068;-72
2022/08/13 07:46:49;;;;;;;1.40;0.90;;;14.80;99.90;;;;;;4974368;28;20558;-75
2022/08/13 07:49:18;;;;;;;3.78;0.98;;;14.60;99.90;;;;;;4974334;28;20019;-75
2022/08/13 07:51:47;;;;;;;2.05;0.90;;;14.60;99.90;;;;;;4972988;28;20114;-75
2022/08/13 07:54:15;;;;;;;2.50;0.80;;;14.60;99.90;;;;;;4972928;28;20027;-73
2022/08/13 07:56:47;;;;;;;1.58;0.80;;;14.50;99.90;;;;;;4972844;28;20033;-73
2022/08/13 07:59:18;;;;;;;1.95;0.90;;;14.50;99.90;;;;;;4976820;28;20027;-74
2022/08/13 08:01:54;;;;;;;3.22;2.42;;;14.50;99.90;;;;;;4976920;28;20118;-74
2022/08/13 08:04:30;;;;;;;1.77;1.40;;;14.50;99.90;;;;;;4977218;28;20087;-73
2022/08/13 08:07:01;;;;;;;3.20;1.92;;;14.50;99.90;;;;;;4977970;28;20364;-74
2022/08/13 08:09:34;;;;;;;2.70;1.67;;;14.40;99.90;;;;;;4978507;28;20027;-73
2022/08/13 08:12:49;;;;;;;2.53;1.08;;;14.30;99.90;;;;;;4976539;28;20472;-73
2022/08/13 08:14:51;;;;;;;2.75;1.35;;;14.30;99.90;;;;;;4967196;28;20507;-73
2022/08/13 08:17:20;;;;;;;5.28;2.45;;;14.20;99.90;;;;;;4977964;28;20061;-73
2022/08/13 08:19:47;;;;;;;4.13;2.45;;;14.10;99.90;;;;;;4976513;28;20455;-74
2022/08/13 08:22:18;;;;;;;2.33;1.60;;;13.90;99.90;;;;;;4977622;28;20038;-73
2022/08/13 08:24:50;;;;;;;3.55;1.50;;;13.80;99.90;;;;;;4978057;28;20058;-73
2022/08/13 08:27:19;;;;;;;1.83;1.40;;;13.70;99.90;;;;;;4976073;28;20031;-73
2022/08/13 08:29:49;;;;;;;2.28;1.33;;;13.50;99.90;;;;;;4977567;28;20015;-74
2022/08/13 08:32:17;;;;;;;2.70;1.80;;;13.30;99.90;;;;;;4977621;28;20026;-72
2022/08/13 08:34:47;;;;;;;4.25;2.00;;;13.20;99.90;;;;;;4977502;28;20035;-72
2022/08/13 08:43:00;;;;;;;1.67;1.30;;;12.90;99.90;;;;;;4978055;28;20085;-73
2022/08/13 08:45:28;;;;;;;3.83;1.73;;;12.80;99.90;;;;;;4975782;28;20079;-72
2022/08/13 08:47:56;;;;;;;2.75;1.50;;;12.70;99.90;;;;;;4975820;28;20031;-74
2022/08/13 08:50:26;;;;;;;3.40;1.30;;;12.70;99.90;;;;;;4977129;28;20102;-72
2022/08/13 08:55:42;;;;;;;2.97;1.50;;;12.80;99.90;;;;;;4977524;28;20080;-71
2022/08/13 08:58:12;;;;;;;2.13;1.23;;;12.90;99.90;;;;;;4977447;28;20038;-72
2022/08/13 09:00:41;;;;;;;2.42;1.33;;;12.80;99.90;;;;;;4975834;28;20038;-72
2022/08/13 09:03:10;;;;;;;2.40;1.00;;;12.90;99.90;;;;;;4975541;28;20023;-72
2022/08/13 09:05:38;;;;;;;3.30;1.15;;;13.00;99.90;;;;;;4976897;28;20026;-71
2022/08/13 09:08:06;;;;;;;3.33;1.52;;;12.90;99.90;;;;;;4975510;28;20023;-71
2022/08/13 09:10:36;;;;;;;1.80;1.20;;;12.90;99.90;;;;;;4975488;28;20027;-71
2022/08/13 09:13:04;;;;;;;3.10;1.30;;;12.80;99.90;;;;;;4975496;28;20090;-71
2022/08/13 09:15:34;;;;;;;2.70;1.13;;;12.80;99.90;;;;;;4975772;28;20062;-71
2022/08/13 09:18:03;;;;;;;3.10;1.30;;;12.80;99.90;;;;;;4975664;28;20031;-72
2022/08/13 09:20:33;;;;;;;2.92;1.25;;;12.70;99.90;;;;;;4975594;28;20085;-72
2022/08/13 09:23:12;;;;;;;1.50;1.00;;;12.70;99.90;;;;;;4975921;28;20093;-71
2022/08/13 09:25:44;;;;;;;2.40;1.38;;;12.60;99.90;;;;;;4975390;28;20091;-72
2022/08/13 09:28:12;;;;;;;1.85;1.20;;;12.60;99.90;;;;;;4977131;28;20369;-71
2022/08/13 09:30:45;;;;;;;2.97;1.58;;;12.50;99.90;;;;;;4976580;28;20026;-72
2022/08/13 09:33:12;;;;;;;2.25;1.40;;;12.40;99.90;;;;;;4977073;28;20027;-72
2022/08/13 09:35:42;;;;;;;2.38;1.30;;;12.30;99.90;;;;;;4976481;28;20483;-71
2022/08/13 09:38:09;;;;;;;2.47;1.35;;;12.30;99.90;;;;;;4976429;28;20126;-70
2022/08/13 09:40:45;;;;;;;2.13;1.27;;;12.20;99.90;;;;;;4976166;28;20027;-71
2022/08/13 09:43:19;;;;;;;2.13;1.30;;;11.90;99.90;;;;;;4976279;28;20029;-71
2022/08/13 09:45:48;;;;;;;3.80;1.73;;;11.80;99.90;;;;;;4975790;28;20081;-73
2022/08/13 09:48:15;;;;;;;3.50;2.03;;;11.70;99.90;;;;;;4976158;28;20026;-73
2022/08/13 09:50:43;;;;;;;3.63;2.22;;;11.60;99.90;;;;;;4976204;28;20074;-73
2022/08/13 09:53:10;;;;;;;3.53;1.90;;;11.60;99.90;;;;;;4976079;28;20023;-73
2022/08/13 09:55:38;;;;;;;3.45;1.73;;;11.50;99.90;;;;;;4976084;28;20026;-73
2022/08/13 09:58:06;;;;;;;3.33;1.77;;;11.40;99.90;;;;;;4976124;28;20400;-73
2022/08/13 10:00:34;;;;;;;3.42;1.60;;;11.40;99.90;;;;;;4974653;28;20511;-73
2022/08/13 10:03:06;;;;;;;3.20;1.48;;;11.30;99.90;;;;;;4975966;28;20069;-73
2022/08/13 10:05:37;;;;;;;3.50;1.60;;;11.30;99.90;;;;;;4975850;28;20037;-72
2022/08/13 10:08:07;;;;;;;4.55;2.53;;;11.10;99.90;;;;;;4975888;28;20023;-72
2022/08/13 10:10:35;;;;;;;4.53;2.35;;;11.00;99.90;;;;;;4974708;28;20058;-72
2022/08/13 10:13:03;;;;;;;3.50;1.90;;;11.00;99.90;;;;;;4974538;28;20031;-72
2022/08/13 10:15:31;;;;;;;5.25;2.88;;;11.00;99.90;;;;;;4975766;28;20023;-72
2022/08/13 10:18:02;;;;;;;4.10;2.50;;;11.00;99.90;;;;;;4975759;28;20031;-71
2022/08/13 10:20:40;;;;;;;3.42;2.05;;;11.00;99.90;;;;;;4974203;28;20574;-71
2022/08/13 10:23:11;;;;;;;4.28;2.33;;;11.00;99.90;;;;;;4974198;28;20034;-72
2022/08/13 10:25:38;;;;;;;3.45;2.58;;;11.00;99.90;;;;;;4975720;28;20038;-71
2022/08/13 10:28:24;;;;;;;5.20;2.70;;;11.00;99.90;;;;;;4974209;28;20122;-72
2022/08/13 10:30:54;;;;;;;4.10;2.90;;;11.00;99.90;;;;;;4974331;28;20030;-72
2022/08/13 10:33:23;;;;;;;5.72;2.72;;;11.00;99.90;;;;;;4958799;28;20030;-71
2022/08/13 10:35:55;;;;;;;4.45;2.75;;;11.00;99.90;;;;;;4974398;28;20042;-73
2022/08/13 10:38:26;;;;;;;3.60;2.47;;;11.00;99.90;;;;;;4974150;28;20031;-73
2022/08/13 10:40:55;;;;;;;4.50;2.47;;;11.00;99.90;;;;;;4975330;28;20039;-72
2022/08/13 10:43:23;;;;;;;4.05;2.80;;;11.00;99.90;;;;;;4973931;28;20022;-72
2022/08/13 10:45:53;;;;;;;4.47;3.15;;;10.90;99.90;;;;;;4973626;28;20448;-72
2022/08/13 10:48:21;;;;;;;4.63;2.88;;;10.90;99.90;;;;;;4975356;28;20349;-71
2022/08/13 10:50:48;;;;;;;5.85;3.00;;;10.90;99.90;;;;;;4975578;28;20101;-72
2022/08/13 10:53:55;;;;;;;5.43;3.42;;;10.90;99.90;;;;;;4973873;28;20023;-71
2022/08/13 10:56:03;;;;;;;6.35;3.40;;;10.80;99.90;;;;;;4974958;28;20500;-74
2022/08/13 10:58:32;;;;;;;5.10;2.90;;;10.80;99.90;;;;;;4973680;28;20027;-71
2022/08/13 11:01:02;;;;;;;4.63;2.92;;;10.80;99.90;;;;;;4975020;28;20075;-71
2022/08/13 11:03:33;;;;;;;5.32;3.20;;;10.80;99.90;;;;;;4975078;28;20109;-72
2022/08/13 11:06:03;;;;;;;5.63;3.30;;;10.80;99.90;;;;;;4975396;28;20034;-73
2022/08/13 11:08:34;;;;;;;5.70;3.67;;;10.80;99.90;;;;;;4973559;28;20023;-70
2022/08/13 11:11:01;;;;;;;6.47;3.80;;;10.70;99.90;;;;;;4974879;28;20051;-72
2022/08/13 11:13:31;;;;;;;5.40;3.60;;;10.70;99.90;;;;;;4974816;28;20015;-72
2022/08/13 11:15:59;;;;;;;8.57;4.50;;;10.70;99.90;;;;;;4973592;28;20133;-71
2022/08/13 11:18:28;;;;;;;6.65;4.10;;;10.60;99.90;;;;;;4974682;28;20078;-72
2022/08/13 11:21:07;;;;;;;6.72;4.05;;;10.50;99.90;;;;;;4974924;28;20492;-72
2022/08/13 11:23:35;;;;;;;6.13;4.57;;;10.50;99.90;;;;;;4975115;28;20022;-73
2022/08/13 11:26:03;;;;;;;7.57;4.57;;;10.40;99.90;;;;;;4974775;28;20510;-72
2022/08/13 11:28:31;;;;;;;7.32;4.80;;;10.40;99.90;;;;;;4974616;28;20041;-72
2022/08/13 11:30:58;;;;;;;6.20;4.22;;;10.30;99.90;;;;;;4973212;28;20031;-72
2022/08/13 11:33:26;;;;;;;8.20;4.88;;;10.30;99.90;;;;;;4973651;28;20066;-72
2022/08/13 11:35:54;;;;;;;6.15;4.22;;;10.30;99.90;;;;;;4974491;28;20030;-72
2022/08/13 11:38:23;;;;;;;6.10;4.38;;;10.10;99.90;;;;;;4973305;28;20423;-72
2022/08/13 11:40:56;;;;;;;6.90;4.00;;;10.00;99.90;;;;;;4974390;28;20365;-72
2022/08/13 11:43:25;;;;;;;5.90;4.30;;;10.10;99.90;;;;;;4974501;28;20107;-70
2022/08/13 11:45:52;;;;;;;6.18;4.55;;;10.10;99.90;;;;;;4974274;28;20051;-70
2022/08/13 11:48:21;;;;;;;6.05;4.68;;;10.10;99.90;;;;;;4973086;28;20019;-71
2022/08/13 11:50:50;;;;;;;6.70;4.50;;;10.10;99.90;;;;;;4972849;28;20051;-71
2022/08/13 11:53:22;;;;;;;5.07;4.30;;;10.10;99.90;;;;;;4974401;28;20050;-72
2022/08/13 11:55:50;;;;;;;5.82;4.35;;;10.00;99.90;;;;;;4973109;28;20027;-73
2022/08/13 11:58:17;;;;;;;5.65;4.03;;;9.90;99.90;;;;;;4972854;28;20443;-71
2022/08/13 12:00:44;;;;;;;4.45;4.05;;;9.90;99.90;;;;;;4972937;28;20023;-73
2022/08/13 12:03:12;;;;;;;7.68;4.40;;;9.90;99.90;;;;;;4974345;28;20026;-72
2022/08/13 12:05:40;;;;;;;5.65;4.10;;;9.80;99.90;;;;;;4973974;28;20031;-73
2022/08/13 12:08:19;;;;;;;6.40;4.20;;;9.70;99.90;;;;;;4974122;28;20078;-73
2022/08/13 12:10:50;;;;;;;4.13;3.72;;;9.60;99.90;;;;;;4973081;28;20093;-73
2022/08/13 12:13:17;;;;;;;4.97;3.55;;;9.60;99.90;;;;;;4974399;28;20480;-72
2022/08/13 12:15:44;;;;;;;4.90;3.33;;;9.60;99.90;;;;;;4974324;28;20023;-71
2022/08/13 12:18:17;;;;;;;4.88;3.00;;;9.60;99.90;;;;;;4974138;28;20023;-72
2022/08/13 12:20:45;;;;;;;3.67;2.78;;;9.60;99.90;;;;;;4972696;28;20033;-71
2022/08/13 12:23:12;;;;;;;5.53;2.53;;;9.70;99.90;;;;;;4972760;28;20030;-72
2022/08/13 12:25:40;;;;;;;3.13;2.60;;;9.70;99.90;;;;;;4972595;28;20049;-73
2022/08/13 12:28:10;;;;;;;3.13;2.17;;;9.70;99.90;;;;;;4972726;28;20031;-72
2022/08/13 12:30:38;;;;;;;4.32;2.08;;;9.90;99.90;;;;;;4972599;28;20030;-72
2022/08/13 12:33:06;;;;;;;3.47;1.98;;;10.10;99.90;;;;;;4973867;28;20085;-71
2022/08/13 12:35:34;;;;;;;2.50;1.95;;;10.20;99.90;;;;;;4974491;28;20030;-71
2022/08/13 12:38:08;;;;;;;2.00;1.80;;;10.20;99.90;;;;;;4972758;28;20061;-71
2022/08/13 12:40:36;;;;;;;4.03;1.60;;;10.20;99.90;;;;;;4974017;28;20022;-72
2022/08/13 12:43:04;;;;;;;1.85;1.40;;;10.30;99.90;;;;;;4974113;28;20035;-73
2022/08/13 12:45:33;;;;;;;1.85;1.10;;;10.40;99.90;;;;;;4976371;28;20046;-71
2022/08/13 12:48:09;;;;;;;3.08;1.25;;;10.50;99.90;;;;;;4977360;28;20019;-72
2022/08/13 12:50:38;;;;;;;2.33;1.25;;;10.50;99.90;;;;;;4977814;28;20066;-72
2022/08/13 12:53:06;;;;;;;2.35;1.25;;;10.50;99.90;;;;;;4977520;28;20416;-72
2022/08/13 12:55:37;;;;;;;2.72;1.10;;;10.40;99.90;;;;;;4977306;28;20026;-72
2022/08/13 12:58:15;;;;;;;1.73;1.15;;;10.50;99.90;;;;;;4976351;28;20027;-72
2022/08/13 13:00:48;;;;;;;1.38;0.90;;;10.50;99.90;;;;;;4977171;28;20078;-72
2022/08/13 13:03:16;;;;;;;2.05;1.08;;;10.60;99.90;;;;;;4977341;28;20031;-72
2022/08/13 13:05:45;;;;;;;2.97;0.95;;;10.50;99.90;;;;;;4975888;28;20046;-72
2022/08/13 13:08:19;;;;;;;2.15;1.23;;;10.50;99.90;;;;;;4975950;28;20031;-71
2022/08/13 13:10:48;;;;;;;1.38;0.98;;;10.40;99.90;;;;;;4977289;28;20483;-72
2022/08/13 13:13:18;;;;;;;1.30;0.90;;;10.40;99.90;;;;;;4977601;28;20019;-72
2022/08/13 13:15:46;;;;;;;2.13;1.05;;;10.30;99.90;;;;;;4976300;28;20034;-72
2022/08/13 13:18:16;;;;;;;1.33;0.65;;;10.30;99.90;;;;;;4977460;28;20085;-72
2022/08/13 13:20:46;;;;;;;2.13;0.80;;;10.20;99.90;;;;;;4977691;28;20023;-72